| time (UTC) | temp F | wind direction | speed MPH | gust MPH | rain 1hr in | rain 24hr in | rain mn in | humidity % | barometer mb |
| 20260903041536 | 59 | 271 | 11.0 | 22.0 | 0.00 | 0.02 | 0.02 | 56 | 1012.7 |
| 20260903040035 | 59 | 261 | 9.0 | 24.0 | 0.00 | 0.02 | 0.02 | 55 | 1012.5 |
| 20260903034504 | 59 | 271 | 13.0 | 29.0 | 0.00 | 0.02 | 0.02 | 56 | 1012.5 |
| 20260903033008 | 59 | 258 | 12.0 | 24.0 | 0.00 | 0.02 | 0.02 | 58 | 1012.5 |
| 20260903031502 | 58 | 268 | 14.0 | 27.0 | 0.00 | 0.02 | 0.02 | 60 | 1012.5 |
| 20260903030100 | 57 | 260 | 11.0 | 23.0 | 0.00 | 0.02 | 0.02 | 64 | 1012.6 |
| 20260903024602 | 59 | 278 | 14.0 | 25.0 | 0.00 | 0.02 | 0.02 | 62 | 1012.1 |
| 20260903023054 | 59 | 252 | 9.0 | 22.0 | 0.00 | 0.02 | 0.02 | 67 | 1012.2 |
| 20260903021550 | 58 | 262 | 16.0 | 24.0 | 0.00 | 0.02 | 0.02 | 68 | 1012.2 |
| 20260903020048 | 54 | 263 | 11.0 | 23.0 | 0.00 | 0.02 | 0.02 | 89 | 1012.0 |
| 20260903014548 | 55 | 257 | 8.0 | 21.0 | 0.00 | 0.02 | 0.02 | 89 | 1011.7 |
| 20260903013050 | 54 | 264 | 7.0 | 23.0 | 0.02 | 0.02 | 0.02 | 91 | 1011.4 |
| 20260903011533 | 53 | 280 | 13.0 | 24.0 | 0.02 | 0.02 | 0.02 | 91 | 1011.5 |
| 20260903010033 | 51 | 258 | 7.0 | 21.0 | 0.02 | 0.02 | 0.02 | 90 | 1011.5 |
| 20260903004533 | 51 | 278 | 16.0 | 28.0 | 0.02 | 0.02 | 0.02 | 88 | 1011.4 |
| 20260903003028 | 58 | 245 | 10.0 | 22.0 | 0.00 | 0.00 | 0.00 | 71 | 1011.0 |
| 20260903001526 | 58 | 259 | 13.0 | 24.0 | 0.00 | 0.00 | 0.00 | 71 | 1010.7 |
| 20260903000023 | 58 | 272 | 13.0 | 23.0 | 0.00 | 0.00 | 0.00 | 72 | 1010.6 |
| 20260902234523 | 57 | 264 | 10.0 | 19.0 | 0.00 | 0.00 | 0.00 | 76 | 1010.7 |
| 20260902233020 | 56 | 230 | 10.0 | 20.0 | 0.00 | 0.00 | 0.00 | 77 | 1010.5 |
| 20260902231518 | 56 | 287 | 9.0 | 22.0 | 0.00 | 0.00 | 0.00 | 78 | 1010.5 |
| 20260902230015 | 56 | 288 | 13.0 | 26.0 | 0.00 | 0.00 | 0.00 | 77 | 1010.3 |
| 20260902224516 | 56 | 269 | 16.0 | 25.0 | 0.00 | 0.00 | 0.00 | 74 | 1010.0 |
| 20260902223021 | 56 | 283 | 13.0 | 27.0 | 0.00 | 0.00 | 0.00 | 72 | 1009.4 |
| 20260902221507 | 56 | 263 | 14.0 | 23.0 | 0.00 | 0.00 | 0.00 | 73 | 1008.8 |
| 20260902220005 | 55 | 263 | 9.0 | 20.0 | 0.00 | 0.00 | 0.00 | 73 | 1008.7 |
| 20260902214502 | 55 | 287 | 9.0 | 22.0 | 0.00 | 0.00 | 0.00 | 74 | 1008.4 |
| 20260902213109 | 54 | 269 | 6.0 | 18.0 | 0.00 | 0.00 | 0.00 | 75 | 1008.4 |
| 20260902211603 | 53 | 284 | 5.0 | 17.0 | 0.00 | 0.00 | 0.00 | 75 | 1008.2 |
| 20260902210057 | 53 | 297 | 9.0 | 19.0 | 0.00 | 0.00 | 0.00 | 75 | 1008.2 |
| 20260902204552 | 53 | 318 | 7.0 | 17.0 | 0.00 | 0.00 | 0.00 | 75 | 1008.3 |
| 20260902203050 | 53 | 292 | 8.0 | 20.0 | 0.00 | 0.00 | 0.00 | 74 | 1008.2 |
| 20260902201602 | 52 | 287 | 5.0 | 12.0 | 0.00 | 0.00 | 0.00 | 75 | 1008.3 |
| 20260902200108 | 52 | 300 | 4.0 | 14.0 | 0.00 | 0.00 | 0.00 | 74 | 1008.1 |
| 20260902194545 | 52 | 281 | 5.0 | 14.0 | 0.00 | 0.00 | 0.00 | 74 | 1008.0 |
| 20260902193045 | 52 | 268 | 4.0 | 11.0 | 0.00 | 0.00 | 0.00 | 74 | 1007.9 |
| 20260902191544 | 51 | 276 | 6.0 | 12.0 | 0.00 | 0.00 | 0.00 | 74 | 1008.0 |
| 20260902190052 | 50 | 317 | 4.0 | 8.0 | 0.00 | 0.00 | 0.00 | 75 | 1008.0 |
| 20260902184537 | 50 | 252 | 1.0 | 5.0 | 0.00 | 0.00 | 0.00 | 74 | 1008.1 |
| 20260902183038 | 50 | 339 | 1.0 | 5.0 | 0.00 | 0.00 | 0.00 | 73 | 1007.9 |
| 20260902181537 | 50 | 322 | 2.0 | 8.0 | 0.00 | 0.00 | 0.00 | 72 | 1007.9 |
| 20260902180035 | 50 | 342 | 2.0 | 8.0 | 0.00 | 0.00 | 0.00 | 72 | 1007.9 |
| 20260902174533 | 50 | 337 | 1.0 | 7.0 | 0.00 | 0.00 | 0.00 | 71 | 1008.0 |
| 20260902173028 | 50 | 316 | 2.0 | 6.0 | 0.00 | 0.00 | 0.00 | 71 | 1008.2 |
| 20260902171526 | 50 | 289 | 1.0 | 7.0 | 0.00 | 0.00 | 0.00 | 71 | 1008.4 |
| 20260902170022 | 49 | 274 | 2.0 | 6.0 | 0.00 | 0.00 | 0.00 | 73 | 1008.4 |
| 20260902164521 | 49 | 269 | 4.0 | 9.0 | 0.00 | 0.00 | 0.00 | 72 | 1008.6 |
| 20260902163018 | 49 | 277 | 4.0 | 10.0 | 0.00 | 0.00 | 0.00 | 72 | 1008.7 |
| 20260902161517 | 49 | 276 | 5.0 | 8.0 | 0.00 | 0.00 | 0.00 | 72 | 1008.8 |
| 20260902160033 | 50 | 283 | 3.0 | 11.0 | 0.00 | 0.00 | 0.00 | 73 | 1009.1 |
| 20260902154528 | 49 | 278 | 4.0 | 10.0 | 0.00 | 0.00 | 0.00 | 74 | 1009.3 |
| 20260902153023 | 48 | 295 | 5.0 | 9.0 | 0.00 | 0.00 | 0.00 | 76 | 1009.4 |
| 20260902151522 | 48 | 281 | 4.0 | 8.0 | 0.00 | 0.00 | 0.00 | 76 | 1009.2 |
| 20260902150020 | 47 | 273 | 3.0 | 9.0 | 0.00 | 0.00 | 0.00 | 76 | 1009.1 |
| 20260902144517 | 48 | 297 | 4.0 | 9.0 | 0.00 | 0.00 | 0.00 | 76 | 1009.1 |
| 20260902143015 | 48 | 283 | 4.0 | 9.0 | 0.00 | 0.00 | 0.00 | 75 | 1009.4 |
| 20260902141511 | 48 | 301 | 2.0 | 6.0 | 0.00 | 0.00 | 0.00 | 75 | 1009.5 |
| 20260902140007 | 49 | 293 | 2.0 | 9.0 | 0.00 | 0.00 | 0.00 | 74 | 1009.7 |
| 20260902134505 | 49 | 311 | 2.0 | 8.0 | 0.00 | 0.00 | 0.00 | 73 | 1009.8 |
| 20260902133003 | 49 | 342 | 5.0 | 12.0 | 0.00 | 0.00 | 0.00 | 72 | 1009.9 |
| 20260902131607 | 49 | 351 | 4.0 | 9.0 | 0.00 | 0.00 | 0.00 | 72 | 1010.2 |
| 20260902130059 | 50 | 323 | 4.0 | 7.0 | 0.00 | 0.00 | 0.00 | 73 | 1010.3 |
| 20260902124602 | 50 | 348 | 3.0 | 5.0 | 0.00 | 0.00 | 0.00 | 76 | 1010.5 |
| 20260902123058 | 50 | 297 | 0.0 | 2.0 | 0.00 | 0.00 | 0.00 | 77 | 1010.7 |
| 20260902121603 | 51 | 271 | 1.0 | 5.0 | 0.00 | 0.00 | 0.00 | 75 | 1010.9 |
| 20260902120057 | 52 | 285 | 2.0 | 5.0 | 0.00 | 0.00 | 0.00 | 73 | 1011.0 |
| 20260902114557 | 53 | 260 | 0.0 | 5.0 | 0.00 | 0.00 | 0.00 | 72 | 1011.2 |
| 20260902113110 | 53 | 284 | 2.0 | 5.0 | 0.00 | 0.00 | 0.00 | 71 | 1011.4 |
| 20260902111601 | 53 | 297 | 2.0 | 5.0 | 0.00 | 0.00 | 0.00 | 71 | 1011.2 |
| 20260902110058 | 53 | 276 | 2.0 | 6.0 | 0.00 | 0.00 | 0.00 | 70 | 1011.1 |
| 20260902104556 | 53 | 283 | 1.0 | 5.0 | 0.00 | 0.02 | 0.00 | 72 | 1011.2 |
| 20260902103054 | 52 | 262 | 1.0 | 5.0 | 0.00 | 0.02 | 0.00 | 76 | 1011.2 |
| 20260902101607 | 52 | 290 | 1.0 | 3.0 | 0.00 | 0.02 | 0.00 | 77 | 1011.2 |
| 20260902100052 | 52 | 274 | 2.0 | 6.0 | 0.00 | 0.02 | 0.00 | 76 | 1011.2 |
| 20260902094547 | 52 | 295 | 1.0 | 8.0 | 0.00 | 0.02 | 0.00 | 75 | 1011.1 |
| 20260902093040 | 52 | 290 | 2.0 | 7.0 | 0.00 | 0.02 | 0.00 | 74 | 1010.9 |
| 20260902091545 | 51 | 279 | 3.0 | 6.0 | 0.00 | 0.02 | 0.00 | 75 | 1010.9 |
| 20260902090035 | 51 | 278 | 2.0 | 5.0 | 0.00 | 0.02 | 0.00 | 74 | 1010.8 |
| 20260902084532 | 52 | 276 | 2.0 | 6.0 | 0.00 | 0.02 | 0.00 | 72 | 1010.6 |
| 20260902083029 | 53 | 274 | 4.0 | 6.0 | 0.00 | 0.02 | 0.00 | 71 | 1010.6 |
| 20260902081527 | 54 | 269 | 5.0 | 8.0 | 0.00 | 0.02 | 0.00 | 70 | 1010.5 |
| 20260902080031 | 54 | 268 | 4.0 | 9.0 | 0.00 | 0.02 | 0.00 | 69 | 1010.6 |
| 20260902074527 | 55 | 277 | 3.0 | 8.0 | 0.00 | 0.02 | 0.00 | 67 | 1010.5 |
| 20260902073026 | 56 | 272 | 4.0 | 9.0 | 0.00 | 0.02 | 0.00 | 64 | 1010.4 |
| 20260902071529 | 57 | 292 | 3.0 | 8.0 | 0.00 | 0.02 | 0.00 | 63 | 1010.4 |
| 20260902070026 | 58 | 253 | 4.0 | 11.0 | 0.00 | 0.02 | 0.00 | 62 | 1010.4 |
| 20260902064522 | 58 | 262 | 3.0 | 13.0 | 0.00 | 0.02 | 0.00 | 61 | 1010.7 |
| 20260902063021 | 58 | 236 | 5.0 | 12.0 | 0.00 | 0.02 | 0.00 | 61 | 1010.6 |
| 20260902061518 | 58 | 278 | 6.0 | 15.0 | 0.00 | 0.02 | 0.00 | 61 | 1010.9 |
| 20260902060019 | 58 | 262 | 9.0 | 16.0 | 0.00 | 0.02 | 0.00 | 59 | 1011.0 |
| 20260902054514 | 58 | 276 | 9.0 | 17.0 | 0.00 | 0.02 | 0.00 | 59 | 1011.1 |
| 20260902053014 | 58 | 258 | 9.0 | 14.0 | 0.00 | 0.02 | 0.00 | 59 | 1011.4 |
| 20260902051511 | 58 | 284 | 9.0 | 20.0 | 0.00 | 0.02 | 0.00 | 58 | 1011.7 |
| 20260902050011 | 58 | 302 | 11.0 | 19.0 | 0.00 | 0.02 | 0.00 | 59 | 1011.8 |
| 20260902044510 | 58 | 282 | 10.0 | 19.0 | 0.00 | 0.02 | 0.00 | 59 | 1011.9 |
| 20260902043006 | 58 | 289 | 10.0 | 20.0 | 0.00 | 0.02 | 0.00 | 60 | 1011.8 |